logo
Rechercher aéroport 
image banner adimage banner adimage banner ad
image banner ad

NVSS - Santo

Situé à Luganville, Vanuatu

ICAO - NVSS, IATA - SON

Données fournies par Airmate  

Information générale

Coordonnées: S15°30'21" E167°13'17"
Élévation : 184 feet MSL.
 
Voir autres Aéroports à Sanma

Données opérationnelles

Special qualification required
Heure actuelle UTC:
Heure actuelle locale:
Météo
METAR: NVSS 230000Z 15006KT 9999 BKN020 29/26 Q1012 RERA
TAF: TAF NVSS 222300Z 2300/2324 12006KT 9999 BKN020 INTER 2300/2306 8000 SHRA FEW008 BKN018 OVC040
Voir NOTAMs / SUP AIP / TFR affectant cet aéroport [VIEW]
Fréquences de communication: [VIEW]

Pistes:

Identifiant RWYQFULongueur (ft)Largeur (ft)SurfaceLDA (ft)
12129°656298ASP
30309°656298ASP

Coordonnées de l'aéroport

Adresse: Luganville Vanuatu

Vue satellite de NVSS